Airfield :
LOGIN :

Register | Disclaimer

   EN    FR    IT 

 










Legend :    VFR   Marginal VFR   IFR   Intensive IFR   Very Intensive IFR
Visi :
Ceiling :
>= 8 km
>= 3000ft
5 to 8 km
1000 to 3000 ft
1500m to 5 km
500 to 1000 ft
800 to 1500m
200 to 500 ft
< 800m
< 200 ft
Symbols :   Thunderstorms  Fog  Heavy snow  Heavy precipitations  Wind > 20 kt
SIGMETs :     Misc.  Thunderstorms  Icing  Turbulence  Mountain Waves  Volcanic Ashes







- Airport Elevation : 274 ft
- IATA code : PUY


LDPL - Pula

CURRENT METAR :
  • 200730Z 07016KT CAVOK 24/12 Q1015 NOSIG

EXPIRED METARs :
  • 200700Z 07018KT CAVOK 22/12 Q1015 NOSIG
  • 200630Z 07015KT CAVOK 22/12 Q1014 NOSIG
  • 200600Z 06013KT CAVOK 21/12 Q1014 NOSIG
  • 200530Z 07013KT CAVOK 21/12 Q1014 NOSIG
  • 200500Z 06013KT CAVOK 20/12 Q1014 NOSIG

TAF TAF LDPL
Valid from the 20 at 06:00 until the 21 at 06:00 UTC


200525Z 2006/2106 07015KT CAVOK TX23/2012Z TN15/2103Z
TEMPO 2006/2010 07020G30KT
No reported NOTAMs for that airfield.
1 SIGMET reported for the Zagreb FIR (LDZO) :
 
Severe turbulence
LDZO SIGMET 3 VALID 200417/200800 LDZA
LDZO ZAGREB FIR SEV TURB FCST WI N4356 E01627 - N4357 E01515 - N4522 E01357 - N4532 E01442 - N4356 E01627 SFC/FL050 STNR NC=



MET'MAP, your aeronautical weather chart ! - Copyright ORBIFLY December 2007 - Disclaimer

ORBIFLY MET'MAP TEAM :

Programming & Development : Alexandra Zaïnal
Concept & Development : Baudouin d'Aumeries
Co-Development & Prog : Marc-Olivier Méhu
Technical & hardware support : Manuel Goepfert

Contact : metmap@orbifly.com




SOURCES & CREDITS :

   NOAA